KMDW/MDW METAR and TAF weather

Enter ICAO airport designator
Station Type Date Time Source
KMDW METAR 2022/12/01 00:53 UTC NOAA

KMDW 010053Z 27017G29KT 10SM CLR M04/M12 A3023 RMK AO2 PK WND 27034/0010 SLP252 T10391117


Station Type Date Time Source
KMDW Decoded METAR 2022/12/01 00:53 UTC NOAA

CHICAGO MIDWAY AIRPORT, IL, United States (KMDW) 41-47N 087-45W 188M
Nov 30, 2022 - 07:53 PM EST / 2022.12.01 0053 UTC
Wind: from the W (270 degrees) at 20 MPH (17 KT) gusting to 33 MPH (29 KT):0
Visibility: 10 mile(s):0
Sky conditions: clear
Temperature: 25.0 F (-3.9 C)
Windchill: 10 F (-12 C):1
Dew Point: 10.9 F (-11.7 C)
Relative Humidity: 54%
Pressure (altimeter): 30.23 in. Hg (1023 hPa)
ob: KMDW 010053Z 27017G29KT 10SM CLR M04/M12 A3023 RMK AO2 PK WND 27034/0010 SLP252 T10391117
cycle: 1

Station Type Date Time Source
KMDW TAF 2022/11/30 21:58 UTC NOAA

TAF
AMD KMDW 302057Z 3021/0124 27022G38KT P6SM SCT035
FM010400 28013G22KT P6SM SKC
FM010800 26009KT P6SM FEW250
FM011700 20012KT P6SM FEW250

Example: see airport list